Time;durP1;ratioP1;P1;durP2;ratioP2;P2;SDS_P1;SDS_P2;PMS_P1;PMS_P2;Temp;Humidity;BMP_temperature;BMP_pressure;BME280_temperature;BME280_humidity;BME280_pressure;Samples;Min_cycle;Max_cycle;Signal;HPM_P1;HPM_P2
2023/07/05 00:08:23;;;;;;;20.50;15.00;;;;;;;15.30;63.18;99442.77;431057;1270;141326;-70
2023/07/05 00:18:46;;;;;;;23.40;16.10;;;;;;;15.09;63.94;99433.99;431619;1268;139741;-71
2023/07/05 00:29:11;;;;;;;22.40;16.70;;;;;;;14.83;64.77;99433.77;431376;1268;141073;-71
2023/07/05 00:39:34;;;;;;;22.90;16.80;;;;;;;14.62;65.49;99433.36;431302;1270;140227;-70
2023/07/05 00:50:04;;;;;;;23.60;17.10;;;;;;;14.44;66.03;99428.33;431142;1268;140999;-70
2023/07/05 01:00:29;;;;;;;27.20;18.60;;;;;;;14.24;66.87;99426.89;431460;1270;140462;-70
2023/07/05 01:11:02;;;;;;;20.90;16.40;;;;;;;14.13;67.24;99428.00;431952;1270;139574;-71
2023/07/05 01:21:34;;;;;;;20.30;16.10;;;;;;;14.01;67.88;99426.02;431549;1267;140246;-71
2023/07/05 01:32:06;;;;;;;24.30;17.90;;;;;;;13.86;68.25;99429.13;431527;1270;139634;-71
2023/07/05 01:42:33;;;;;;;19.50;15.90;;;;;;;13.67;68.87;99429.55;431696;1270;140404;-71
2023/07/05 01:53:03;;;;;;;21.30;16.80;;;;;;;13.55;69.13;99427.71;432176;1270;140831;-70
2023/07/05 02:03:29;;;;;;;21.00;16.60;;;;;;;13.40;69.63;99425.47;432104;1273;139633;-71
2023/07/05 02:13:52;;;;;;;21.00;16.40;;;;;;;13.30;70.18;99427.66;432816;1270;140715;-71
2023/07/05 02:24:17;;;;;;;24.40;17.50;;;;;;;13.19;70.21;99426.89;432232;1272;140541;-70
2023/07/05 02:34:42;;;;;;;24.20;17.90;;;;;;;13.08;70.70;99417.94;432214;1273;139659;-70
2023/07/05 02:45:08;;;;;;;22.90;17.30;;;;;;;12.98;71.01;99417.26;432015;1269;139679;-71
2023/07/05 02:55:31;;;;;;;19.50;16.20;;;;;;;12.93;71.21;99420.84;431752;1270;140432;-70
2023/07/05 03:05:57;;;;;;;25.60;18.50;;;;;;;13.14;72.06;99421.35;431139;1274;140645;-70
2023/07/05 03:16:21;;;;;;;25.50;18.60;;;;;;;13.75;72.11;99423.81;431537;1270;139641;-70
2023/07/05 03:26:46;;;;;;;25.00;18.10;;;;;;;14.76;70.48;99428.87;431396;1273;139643;-70
2023/07/05 03:37:10;;;;;;;29.10;18.20;;;;;;;15.33;68.96;99436.58;432170;1271;141194;-72
2023/07/05 03:47:34;;;;;;;27.90;19.40;;;;;;;15.83;67.61;99433.98;431948;1267;140034;-70
2023/07/05 03:57:58;;;;;;;25.70;18.40;;;;;;;16.26;66.15;99436.21;431607;1271;140738;-70
2023/07/05 04:08:22;;;;;;;28.50;20.30;;;;;;;18.76;64.69;99424.57;431458;1272;139972;-72
2023/07/05 04:18:49;;;;;;;21.70;14.90;;;;;;;22.71;58.03;99426.84;431229;1267;140446;-71
2023/07/05 04:29:13;;;;;;;17.50;13.90;;;;;;;25.67;51.45;99427.70;431455;1272;140230;-72
2023/07/05 04:39:37;;;;;;;14.20;11.30;;;;;;;28.24;44.73;99425.21;431972;1267;139302;-69
2023/07/05 04:50:01;;;;;;;13.50;9.80;;;;;;;30.23;39.88;99422.34;431334;1271;141008;-73
2023/07/05 05:00:25;;;;;;;13.60;10.20;;;;;;;32.48;35.97;99417.78;431686;1272;139668;-70
2023/07/05 05:10:52;;;;;;;10.40;9.30;;;;;;;34.98;32.53;99413.27;431659;1272;139795;-64
2023/07/05 05:21:16;;;;;;;10.30;9.00;;;;;;;36.46;29.07;99413.21;432031;1267;139170;-65
2023/07/05 05:31:40;;;;;;;10.50;8.70;;;;;;;38.06;27.13;99415.88;431852;1269;139126;-64
2023/07/05 05:42:05;;;;;;;10.60;9.60;;;;;;;39.74;25.24;99413.41;432479;1267;139283;-64
2023/07/05 05:52:29;;;;;;;11.90;9.70;;;;;;;40.52;23.27;99410.30;432420;1267;138635;-69
2023/07/05 06:02:53;;;;;;;10.00;9.20;;;;;;;41.78;21.89;99404.46;431670;1267;139043;-70
2023/07/05 06:13:17;;;;;;;10.60;9.60;;;;;;;40.83;21.16;99404.13;430504;1267;140808;-67
2023/07/05 06:23:41;;;;;;;11.90;10.40;;;;;;;37.84;22.20;99398.36;430814;1267;138707;-68
2023/07/05 06:34:05;;;;;;;13.60;10.80;;;;;;;38.85;21.94;99389.45;431544;1267;139096;-66
2023/07/05 06:44:30;;;;;;;12.40;11.40;;;;;;;40.10;20.99;99384.28;430955;1270;138914;-68
2023/07/05 06:54:54;;;;;;;10.60;9.70;;;;;;;42.64;20.27;99375.69;431689;1267;139010;-66
2023/07/05 07:05:18;;;;;;;11.80;10.90;;;;;;;45.63;18.20;99374.23;432482;1267;139075;-67
2023/07/05 07:15:42;;;;;;;11.90;11.00;;;;;;;45.22;17.30;99366.82;432360;1270;138764;-66
2023/07/05 07:26:08;;;;;;;12.10;11.00;;;;;;;45.65;16.79;99356.58;431598;1270;139791;-67
2023/07/05 07:36:34;;;;;;;13.80;11.70;;;;;;;45.09;16.40;99350.23;431613;1270;140921;-67
2023/07/05 07:46:58;;;;;;;13.20;11.90;;;;;;;43.58;16.82;99341.33;432181;1270;139358;-66
2023/07/05 07:57:23;;;;;;;14.90;13.50;;;;;;;38.66;18.65;99340.51;432350;1267;139720;-66
2023/07/05 08:07:47;;;;;;;12.50;11.30;;;;;;;35.81;21.05;99328.90;431714;1267;138760;-67
2023/07/05 08:18:11;;;;;;;13.00;11.90;;;;;;;34.52;22.32;99329.73;431624;1267;139184;-67
2023/07/05 08:28:36;;;;;;;13.80;12.30;;;;;;;33.17;23.41;99328.26;431652;1268;139564;-66
2023/07/05 08:39:01;;;;;;;14.90;12.60;;;;;;;31.93;24.81;99321.62;432023;1267;152179;-66
2023/07/05 08:49:30;;;;;;;12.40;10.80;;;;;;;31.68;25.86;99307.67;431397;1267;139917;-66
2023/07/05 08:59:59;;;;;;;11.40;9.40;;;;;;;31.34;26.72;99302.08;431758;1268;139089;-66
2023/07/05 09:10:29;;;;;;;12.90;8.70;;;;;;;31.37;27.34;99295.36;431432;1271;139201;-65
2023/07/05 09:21:08;;;;;;;9.70;8.10;;;;;;;30.91;27.96;99287.49;431544;1269;138503;-65
2023/07/05 09:31:33;;;;;;;11.40;9.10;;;;;;;30.98;28.35;99276.48;432576;1267;139549;-65
2023/07/05 09:42:02;;;;;;;10.50;9.30;;;;;;;30.70;28.55;99260.98;431536;1267;138886;-65
2023/07/05 09:52:27;;;;;;;8.50;7.40;;;;;;;30.74;29.17;99254.62;432031;1270;140181;-65
2023/07/05 10:02:53;;;;;;;9.20;7.90;;;;;;;30.68;29.80;99252.98;431453;1267;138352;-65
2023/07/05 10:13:21;;;;;;;8.40;7.20;;;;;;;30.91;30.07;99243.44;431686;1267;138770;-65
2023/07/05 10:23:48;;;;;;;7.60;6.80;;;;;;;30.68;30.07;99235.55;431948;1270;138915;-63
2023/07/05 10:34:20;;;;;;;7.40;6.70;;;;;;;30.00;30.84;99222.60;432155;1268;138651;-65
2023/07/05 10:44:44;;;;;;;7.10;5.80;;;;;;;29.62;31.72;99217.23;431476;1270;139605;-65
2023/07/05 10:55:16;;;;;;;5.00;4.50;;;;;;;30.26;31.58;99204.39;431613;1267;139403;-65
2023/07/05 11:05:45;;;;;;;5.40;4.10;;;;;;;30.33;31.19;99194.98;431736;1267;139342;-66
2023/07/05 11:16:15;;;;;;;4.10;3.50;;;;;;;30.24;31.44;99180.87;431922;1270;139332;-66
2023/07/05 11:26:42;;;;;;;4.60;3.60;;;;;;;30.14;31.74;99167.95;431971;1270;139037;-66
2023/07/05 11:37:39;;;;;;;4.90;3.70;;;;;;;30.10;31.61;99153.23;431965;1270;139167;-66
2023/07/05 11:48:03;;;;;;;4.70;3.80;;;;;;;29.92;31.33;99137.61;431878;1267;138634;-66
2023/07/05 11:58:35;;;;;;;7.80;3.90;;;;;;;30.10;31.29;99123.62;431506;1267;138464;-66
2023/07/05 12:09:03;;;;;;;5.00;3.90;;;;;;;30.44;30.38;99111.52;431641;1267;138565;-67
2023/07/05 12:19:30;;;;;;;5.50;3.70;;;;;;;30.62;30.45;99094.52;432112;1270;138641;-66
2023/07/05 12:29:56;;;;;;;4.60;3.50;;;;;;;30.97;30.48;99078.92;431295;1268;138898;-66
2023/07/05 12:40:26;;;;;;;5.70;3.30;;;;;;;30.86;30.45;99072.52;431482;1270;138611;-66
2023/07/05 12:51:02;;;;;;;4.10;3.40;;;;;;;30.87;30.61;99055.30;432481;1267;138668;-65
2023/07/05 13:01:31;;;;;;;4.70;2.90;;;;;;;30.87;30.36;99035.19;431510;1267;139155;-66
2023/07/05 13:12:00;;;;;;;3.90;3.50;;;;;;;30.38;30.44;99019.05;431068;1270;139678;-66
2023/07/05 13:22:26;;;;;;;3.40;3.10;;;;;;;30.09;30.85;99013.27;432611;1270;138787;-71
2023/07/05 13:32:53;;;;;;;5.20;3.10;;;;;;;30.18;30.73;99007.11;433351;1268;139597;-77
2023/07/05 13:43:17;;;;;;;4.50;2.70;;;;;;;30.66;30.15;99001.30;434748;1267;138620;-75
2023/07/05 13:53:41;;;;;;;9.30;3.10;;;;;;;30.67;29.87;98993.57;434025;1270;139138;-70
2023/07/05 14:04:05;;;;;;;3.60;2.50;;;;;;;30.58;30.02;98987.63;431815;1268;138957;-72
2023/07/05 14:14:30;;;;;;;4.50;2.70;;;;;;;30.53;29.53;98987.48;433594;1267;140307;-75
2023/07/05 14:24:54;;;;;;;3.90;2.80;;;;;;;30.41;29.44;98985.38;433688;1267;139476;-71
2023/07/05 14:35:21;;;;;;;2.60;2.10;;;;;;;30.59;29.31;98990.65;431564;1270;140744;-66
2023/07/05 14:45:46;;;;;;;2.90;2.30;;;;;;;30.80;29.32;98986.58;431040;1267;138413;-66
2023/07/05 14:56:10;;;;;;;9.30;3.50;;;;;;;30.84;29.47;98996.40;431499;1267;138670;-66
2023/07/05 15:06:36;;;;;;;24.30;3.60;;;;;;;30.23;29.82;99016.75;431301;1270;139313;-66
2023/07/05 15:17:00;;;;;;;18.80;3.30;;;;;;;27.80;33.85;99092.42;431307;1267;139197;-65
2023/07/05 15:27:24;;;;;;;5.40;1.80;;;;;;;25.02;40.10;99146.44;431234;1268;138648;-65
2023/07/05 15:37:50;;;;;;;4.80;1.50;;;;;;;23.33;44.58;99184.60;431169;1268;138806;-62
2023/07/05 15:48:14;;;;;;;2.80;1.40;;;;;;;22.24;48.56;99177.67;431127;1270;139477;-61
2023/07/05 15:58:43;;;;;;;2.80;1.00;;;;;;;21.28;53.22;99151.59;431078;1268;139779;-61
2023/07/05 16:09:07;;;;;;;2.90;1.90;;;;;;;20.72;56.61;99075.51;431364;1270;138423;-63
2023/07/05 16:19:32;;;;;;;0.90;0.90;;;;;;;20.99;58.96;99054.90;431944;1268;140306;-64
2023/07/05 16:29:56;;;;;;;3.40;1.40;;;;;;;21.30;58.72;99056.65;432050;1268;140790;-63
2023/07/05 16:40:21;;;;;;;1.30;0.90;;;;;;;21.39;59.23;99056.66;432185;1270;138411;-63
2023/07/05 16:50:45;;;;;;;3.00;1.30;;;;;;;21.16;60.06;99058.84;431419;1270;139561;-61
2023/07/05 17:01:11;;;;;;;2.70;1.40;;;;;;;20.85;61.61;99052.12;431503;1268;139270;-61
2023/07/05 17:11:34;;;;;;;3.10;1.90;;;;;;;20.74;62.39;99031.33;431626;1268;138783;-62
2023/07/05 17:21:59;;;;;;;3.10;1.40;;;;;;;20.88;63.90;99022.95;431263;1266;138844;-62
2023/07/05 17:32:23;;;;;;;3.30;1.60;;;;;;;20.99;64.68;99061.34;431172;1270;139744;-62
2023/07/05 17:42:47;;;;;;;1.60;1.40;;;;;;;20.52;64.25;99131.35;431257;1268;141384;-63
2023/07/05 17:53:11;;;;;;;3.90;2.30;;;;;;;20.32;64.44;99206.81;431305;1267;139280;-62
2023/07/05 18:03:35;;;;;;;4.40;2.40;;;;;;;20.18;65.23;99236.81;432554;1270;139512;-62
2023/07/05 18:13:59;;;;;;;3.00;2.70;;;;;;;19.93;66.63;99253.38;432536;1268;140100;-63
2023/07/05 18:24:23;;;;;;;2.70;2.30;;;;;;;19.61;68.39;99271.30;432160;1270;139903;-62
2023/07/05 18:34:47;;;;;;;4.60;3.50;;;;;;;19.28;70.00;99236.34;431380;1270;139198;-62
2023/07/05 18:45:13;;;;;;;5.90;3.90;;;;;;;18.79;72.21;99202.38;431416;1268;139540;-62
2023/07/05 18:55:38;;;;;;;3.10;2.50;;;;;;;18.52;73.62;99223.73;431365;1268;139069;-62
2023/07/05 19:06:04;;;;;;;5.60;3.70;;;;;;;18.36;74.59;99217.05;431310;1270;139346;-62
2023/07/05 19:16:28;;;;;;;3.80;2.20;;;;;;;18.19;75.18;99204.45;431815;1268;139217;-62
2023/07/05 19:26:52;;;;;;;5.90;2.90;;;;;;;18.01;76.18;99197.52;431334;1267;139742;-62
2023/07/05 19:37:16;;;;;;;5.60;2.50;;;;;;;17.90;76.97;99199.03;431370;1270;175248;-62
2023/07/05 19:47:41;;;;;;;7.20;3.50;;;;;;;17.87;78.22;99194.48;431203;1270;141313;-62
2023/07/05 19:57:46;;;;;;;9.00;4.70;;;;;;;17.85;79.29;99198.06;431491;1268;139752;-61
2023/07/05 20:07:49;;;;;;;3.50;2.40;;;;;;;17.87;80.26;99191.34;431089;1268;139230;-62
2023/07/05 20:17:53;;;;;;;2.90;2.70;;;;;;;17.97;81.52;99200.42;431326;1271;139768;-63
2023/07/05 20:27:57;;;;;;;5.20;3.20;;;;;;;17.99;81.56;99232.09;431843;1268;139296;-62
2023/07/05 20:38:03;;;;;;;4.80;2.40;;;;;;;17.89;80.84;99233.28;431311;1268;140164;-62
2023/07/05 20:48:06;;;;;;;2.80;2.20;;;;;;;17.78;80.60;99228.83;431362;1268;140244;-64
2023/07/05 20:58:10;;;;;;;4.60;2.80;;;;;;;17.71;80.76;99229.09;431683;1267;139221;-64
2023/07/05 21:08:13;;;;;;;3.60;2.80;;;;;;;17.56;81.19;99234.91;431986;1268;140743;-65
2023/07/05 21:18:17;;;;;;;4.40;2.50;;;;;;;17.48;82.16;99235.39;431362;1271;139570;-64
2023/07/05 21:28:20;;;;;;;3.40;3.10;;;;;;;17.53;83.03;99234.88;431762;1268;139181;-67
2023/07/05 21:38:24;;;;;;;3.70;2.70;;;;;;;17.56;83.20;99242.01;432320;1272;141179;-63
2023/07/05 21:48:30;;;;;;;3.50;3.00;;;;;;;17.49;83.12;99248.94;431864;1271;139644;-63
2023/07/05 21:58:34;;;;;;;4.50;3.20;;;;;;;17.39;83.60;99249.65;431512;1270;139838;-62
2023/07/05 22:08:37;;;;;;;4.20;2.60;;;;;;;17.30;83.94;99248.30;431688;1267;139710;-61
2023/07/05 22:18:40;;;;;;;3.80;3.10;;;;;;;17.16;84.51;99255.75;431172;1273;140299;-62
2023/07/05 22:28:43;;;;;;;2.40;2.20;;;;;;;17.01;85.02;99266.44;430955;1273;139254;-62
2023/07/05 22:38:46;;;;;;;5.20;4.50;;;;;;;16.91;85.79;99269.30;430917;1272;139735;-61
2023/07/05 22:48:49;;;;;;;3.70;3.10;;;;;;;16.85;86.24;99279.73;430975;1273;139511;-62
2023/07/05 22:58:52;;;;;;;4.50;3.30;;;;;;;16.78;86.76;99284.61;431098;1272;139811;-62
2023/07/05 23:08:55;;;;;;;6.40;3.50;;;;;;;16.75;87.62;99283.13;431011;1272;140774;-62
2023/07/05 23:19:00;;;;;;;4.00;3.30;;;;;;;16.74;88.49;99275.55;430877;1273;141018;-61
2023/07/05 23:29:03;;;;;;;3.80;3.50;;;;;;;16.76;88.94;99274.28;430987;1272;139136;-61
2023/07/05 23:39:08;;;;;;;5.60;3.10;;;;;;;16.77;89.18;99275.88;431084;1270;142340;-62
2023/07/05 23:49:13;;;;;;;6.10;4.00;;;;;;;16.78;89.66;99267.13;430822;1270;139794;-61
2023/07/05 23:59:18;;;;;;;5.00;4.20;;;;;;;16.78;90.08;99272.32;431346;1271;140100;-62
